Time;durP1;ratioP1;P1;durP2;ratioP2;P2;SDS_P1;SDS_P2;PMS_P1;PMS_P2;Temp;Humidity;BMP_temperature;BMP_pressure;BME280_temperature;BME280_humidity;BME280_pressure;Samples;Min_cycle;Max_cycle;Signal;HPM_P1;HPM_P2
2022/09/03 00:00:24;;;;;;;10.38;9.23;;;;;;;;;;4991550;28;20050;-73
2022/09/03 00:02:59;;;;;;;14.00;8.88;;;;;;;;;;4995334;28;20106;-73
2022/09/03 00:05:25;;;;;;;13.65;9.30;;;;;;;;;;4991998;28;20106;-73
2022/09/03 00:08:10;;;;;;;14.73;8.50;;;;;;;;;;4992407;28;20023;-73
2022/09/03 00:10:43;;;;;;;13.77;9.52;;;;;;;;;;4990847;28;20035;-74
2022/09/03 00:13:14;;;;;;;15.25;11.40;;;;;;;;;;4992579;28;20026;-74
2022/09/03 00:15:40;;;;;;;14.63;11.00;;;;;;;;;;4998338;28;20022;-73
2022/09/03 00:18:08;;;;;;;14.85;11.10;;;;;;;;;;4995671;28;20084;-74
2022/09/03 00:20:39;;;;;;;17.33;12.35;;;;;;;;;;4996227;28;20011;-73
2022/09/03 00:23:07;;;;;;;18.98;13.15;;;;;;;;;;5002756;28;20018;-74
2022/09/03 00:25:44;;;;;;;18.20;12.90;;;;;;;;;;5013383;28;20057;-73
2022/09/03 00:28:18;;;;;;;16.10;12.18;;;;;;;;;;4993454;28;20042;-73
2022/09/03 00:30:46;;;;;;;16.50;12.27;;;;;;;;;;4994043;28;20031;-75
2022/09/03 00:33:16;;;;;;;16.65;12.45;;;;;;;;;;4994832;28;20058;-73
2022/09/03 00:35:46;;;;;;;19.58;12.73;;;;;;;;;;4977725;28;20035;-73
2022/09/03 00:38:12;;;;;;;15.98;12.40;;;;;;;;;;5010561;28;20033;-73
2022/09/03 00:40:44;;;;;;;16.60;12.77;;;;;;;;;;5000577;28;20027;-73
2022/09/03 00:43:20;;;;;;;16.48;13.55;;;;;;;;;;4980807;28;20039;-73
2022/09/03 00:45:49;;;;;;;18.92;13.75;;;;;;;;;;4996839;28;20011;-73
2022/09/03 00:48:26;;;;;;;21.52;14.68;;;;;;;;;;4980622;28;20073;-73
2022/09/03 00:51:01;;;;;;;20.48;14.00;;;;;;;;;;4999651;28;20019;-73
2022/09/03 00:53:39;;;;;;;17.17;13.80;;;;;;;;;;5000574;28;20054;-74
2022/09/03 00:56:27;;;;;;;16.38;13.23;;;;;;;;;;4982696;28;20058;-74
2022/09/03 00:58:59;;;;;;;16.88;12.93;;;;;;;;;;4999508;28;20023;-73
2022/09/03 01:01:25;;;;;;;19.88;13.55;;;;;;;;;;5002151;28;20055;-73
2022/09/03 01:03:55;;;;;;;16.30;12.77;;;;;;;;;;5018698;28;20038;-73
2022/09/03 01:06:28;;;;;;;16.73;12.60;;;;;;;;;;4984840;28;20049;-73
2022/09/03 01:09:10;;;;;;;15.57;12.50;;;;;;;;;;5001460;28;20022;-73
2022/09/03 01:11:44;;;;;;;17.15;12.77;;;;;;;;;;5003693;28;20026;-73
2022/09/03 01:14:13;;;;;;;14.93;11.63;;;;;;;;;;4981557;28;20046;-73
2022/09/03 01:17:12;;;;;;;16.55;12.50;;;;;;;;;;5000493;28;20029;-75
2022/09/03 01:19:56;;;;;;;15.43;12.50;;;;;;;;;;4922589;29;20060;-73
2022/09/03 01:22:41;;;;;;;17.45;13.63;;;;;;;;;;4926845;29;20065;-74
2022/09/03 01:25:30;;;;;;;18.98;14.18;;;;;;;;;;4942987;29;20020;-73
2022/09/03 01:28:12;;;;;;;20.55;15.30;;;;;;;;;;4925108;29;20020;-75
2022/09/03 01:30:39;;;;;;;20.40;15.75;;;;;;;;;;4923501;29;20028;-73
2022/09/03 01:33:15;;;;;;;24.70;16.05;;;;;;;;;;4934996;29;20016;-73
2022/09/03 01:35:51;;;;;;;27.27;17.50;;;;;;;;;;5219427;23;20030;-73
2022/09/03 01:38:34;;;;;;;22.98;16.02;;;;;;;;;;5019966;28;20018;-73
2022/09/03 01:42:12;;;;;;;26.25;17.17;;;;;;;;;;5020100;28;20021;-74
2022/09/03 01:43:52;;;;;;;20.63;15.70;;;;;;;;;;5017058;28;20021;-73
2022/09/03 01:46:18;;;;;;;21.40;15.80;;;;;;;;;;5002682;28;20041;-73
2022/09/03 01:49:10;;;;;;;17.63;14.57;;;;;;;;;;5014239;28;20025;-73
2022/09/03 01:51:36;;;;;;;19.90;14.00;;;;;;;;;;5018044;28;20026;-73
2022/09/03 01:54:02;;;;;;;19.55;14.23;;;;;;;;;;5016999;28;20041;-73
2022/09/03 01:56:28;;;;;;;19.38;13.93;;;;;;;;;;5012672;28;20098;-74
2022/09/03 01:59:19;;;;;;;17.33;14.05;;;;;;;;;;5013906;28;20046;-72
2022/09/03 02:01:49;;;;;;;17.15;14.25;;;;;;;;;;5019401;23;20074;-74
2022/09/03 02:04:18;;;;;;;19.55;14.18;;;;;;;;;;4993109;28;20038;-75
2022/09/03 02:06:45;;;;;;;18.75;14.27;;;;;;;;;;5019659;28;20022;-74
2022/09/03 02:09:11;;;;;;;17.58;13.70;;;;;;;;;;5030185;28;20022;-72
2022/09/03 02:11:38;;;;;;;18.75;14.10;;;;;;;;;;5021324;28;20022;-72
2022/09/03 02:14:04;;;;;;;16.23;13.80;;;;;;;;;;5013809;28;20038;-74
2022/09/03 02:16:33;;;;;;;19.50;13.85;;;;;;;;;;4999900;28;20086;-72
2022/09/03 02:19:01;;;;;;;17.17;12.73;;;;;;;;;;5018052;28;20014;-73
2022/09/03 02:21:31;;;;;;;15.20;13.55;;;;;;;;;;5010677;28;20014;-73
2022/09/03 02:23:57;;;;;;;21.88;13.27;;;;;;;;;;5019311;28;20010;-73
2022/09/03 02:26:24;;;;;;;18.17;13.35;;;;;;;;;;5010810;28;20094;-73
2022/09/03 02:28:51;;;;;;;18.55;12.98;;;;;;;;;;5028285;28;20022;-73
2022/09/03 02:31:17;;;;;;;17.40;12.82;;;;;;;;;;4998579;28;20035;-73
2022/09/03 02:33:45;;;;;;;17.35;12.35;;;;;;;;;;4994531;28;20035;-74
2022/09/03 02:36:14;;;;;;;16.92;12.00;;;;;;;;;;5006231;28;20476;-73
2022/09/03 02:38:44;;;;;;;14.95;12.13;;;;;;;;;;5000147;28;20026;-73
2022/09/03 02:41:12;;;;;;;14.82;11.10;;;;;;;;;;5007840;28;20010;-73
2022/09/03 02:43:50;;;;;;;13.32;11.02;;;;;;;;;;5000367;28;20057;-73
2022/09/03 02:46:25;;;;;;;14.68;11.27;;;;;;;;;;5017973;28;20166;-74
2022/09/03 02:48:52;;;;;;;15.25;10.20;;;;;;;;;;5012798;28;20034;-73
2022/09/03 02:51:18;;;;;;;16.20;10.90;;;;;;;;;;5012699;28;20027;-73
2022/09/03 02:53:44;;;;;;;13.52;9.95;;;;;;;;;;5014934;28;20082;-73
2022/09/03 02:56:11;;;;;;;15.20;10.45;;;;;;;;;;5018618;28;20021;-72
2022/09/03 02:58:37;;;;;;;12.98;9.75;;;;;;;;;;5012099;28;20042;-73
2022/09/03 03:01:04;;;;;;;12.02;9.25;;;;;;;;;;4994051;28;20050;-73
2022/09/03 03:03:30;;;;;;;14.40;10.18;;;;;;;;;;5005447;28;20037;-72
2022/09/03 03:05:57;;;;;;;15.38;9.07;;;;;;;;;;5016423;28;20042;-73
2022/09/03 03:08:27;;;;;;;14.02;9.35;;;;;;;;;;5013871;28;20007;-75
2022/09/03 03:10:55;;;;;;;12.65;8.90;;;;;;;;;;4996439;28;20019;-72
2022/09/03 03:13:21;;;;;;;12.32;8.68;;;;;;;;;;4995531;28;20113;-72
2022/09/03 03:15:48;;;;;;;16.60;8.35;;;;;;;;;;4997915;28;20023;-74
2022/09/03 03:18:16;;;;;;;9.45;8.02;;;;;;;;;;4994839;28;20099;-73
2022/09/03 03:20:42;;;;;;;11.73;8.23;;;;;;;;;;5007214;28;20034;-73
2022/09/03 03:23:09;;;;;;;16.25;8.40;;;;;;;;;;4998938;28;20027;-72
2022/09/03 03:25:36;;;;;;;10.63;8.38;;;;;;;;;;4998557;28;20071;-75
2022/09/03 03:28:03;;;;;;;9.30;7.80;;;;;;;;;;4999025;28;20037;-72
2022/09/03 03:30:29;;;;;;;10.70;8.30;;;;;;;;;;4998770;28;20031;-73
2022/09/03 03:32:56;;;;;;;10.95;7.70;;;;;;;;;;5015348;28;20098;-72
2022/09/03 03:35:22;;;;;;;13.50;7.70;;;;;;;;;;5018360;28;20066;-72
2022/09/03 03:37:49;;;;;;;10.00;7.60;;;;;;;;;;5010452;28;20031;-74
2022/09/03 03:40:15;;;;;;;9.55;6.85;;;;;;;;;;4992713;28;20027;-77
2022/09/03 03:42:41;;;;;;;9.23;7.45;;;;;;;;;;4971383;28;20027;-74
2022/09/03 03:45:08;;;;;;;9.57;7.25;;;;;;;;;;5011831;28;20077;-73
2022/09/03 03:47:35;;;;;;;9.55;7.18;;;;;;;;;;4999125;28;20034;-73
2022/09/03 03:50:01;;;;;;;9.25;7.25;;;;;;;;;;4991727;28;20468;-74
2022/09/03 03:52:27;;;;;;;9.48;7.47;;;;;;;;;;4995596;28;20105;-77
2022/09/03 03:54:53;;;;;;;10.35;7.47;;;;;;;;;;4998865;28;20011;-73
2022/09/03 03:57:20;;;;;;;10.88;7.40;;;;;;;;;;4998983;28;20038;-73
2022/09/03 03:59:47;;;;;;;9.70;6.95;;;;;;;;;;5012464;28;20039;-76
2022/09/03 04:02:13;;;;;;;9.48;7.50;;;;;;;;;;5007626;28;20025;-75
2022/09/03 04:04:39;;;;;;;10.00;7.40;;;;;;;;;;5014650;28;20035;-76
2022/09/03 04:07:06;;;;;;;14.15;8.43;;;;;;;;;;5010690;28;20047;-75
2022/09/03 04:09:33;;;;;;;12.90;7.00;;;;;;;;;;5002334;28;20030;-74
2022/09/03 04:11:59;;;;;;;10.00;7.55;;;;;;;;;;5002256;28;20049;-78
2022/09/03 04:14:26;;;;;;;8.25;6.85;;;;;;;;;;5004089;28;20037;-74
2022/09/03 04:16:52;;;;;;;9.90;7.13;;;;;;;;;;5007351;28;20041;-75
2022/09/03 04:19:18;;;;;;;10.50;8.15;;;;;;;;;;5000595;28;20011;-77
2022/09/03 04:21:44;;;;;;;15.43;7.55;;;;;;;;;;5006902;28;20018;-74
2022/09/03 04:24:10;;;;;;;12.27;7.60;;;;;;;;;;5003618;28;20062;-76
2022/09/03 04:26:37;;;;;;;9.93;7.47;;;;;;;;;;5011933;28;20023;-75
2022/09/03 04:29:04;;;;;;;9.73;6.78;;;;;;;;;;5041189;28;20010;-75
2022/09/03 04:31:31;;;;;;;8.40;7.30;;;;;;;;;;5033128;28;20033;-77
2022/09/03 04:33:57;;;;;;;12.68;7.55;;;;;;;;;;4999547;28;20019;-77
2022/09/03 04:36:24;;;;;;;8.45;6.72;;;;;;;;;;4976001;28;20046;-78
2022/09/03 04:38:52;;;;;;;7.85;6.93;;;;;;;;;;5002527;28;20015;-72
2022/09/03 04:41:20;;;;;;;12.32;7.32;;;;;;;;;;5002356;28;20007;-74
2022/09/03 04:43:47;;;;;;;9.32;6.68;;;;;;;;;;5005156;28;20022;-73
2022/09/03 04:46:15;;;;;;;10.63;7.00;;;;;;;;;;5001382;28;20039;-73
2022/09/03 04:48:41;;;;;;;10.27;7.07;;;;;;;;;;5012566;28;20015;-73
2022/09/03 04:51:09;;;;;;;9.15;6.35;;;;;;;;;;5016212;28;20018;-74
2022/09/03 04:53:36;;;;;;;12.27;6.80;;;;;;;;;;5021597;28;20015;-75
2022/09/03 04:56:25;;;;;;;11.02;6.07;;;;;;;;;;5005865;28;20015;-77
2022/09/03 04:58:55;;;;;;;8.07;6.82;;;;;;;;;;5000522;28;20019;-74
2022/09/03 05:01:21;;;;;;;13.07;7.30;;;;;;;;;;4996940;28;20050;-73
2022/09/03 05:03:50;;;;;;;13.73;8.48;;;;;;;;;;4997044;28;20026;-73
2022/09/03 05:06:16;;;;;;;9.27;6.97;;;;;;;;;;4999176;28;20035;-77
2022/09/03 05:08:43;;;;;;;20.85;11.13;;;;;;;;;;5009036;28;20022;-73
2022/09/03 05:11:09;;;;;;;18.95;10.23;;;;;;;;;;5004139;28;20027;-73
2022/09/03 05:13:35;;;;;;;12.02;7.35;;;;;;;;;;4989078;28;20091;-72
2022/09/03 05:16:05;;;;;;;11.65;7.00;;;;;;;;;;4995780;28;20059;-71
2022/09/03 05:18:34;;;;;;;9.15;5.90;;;;;;;;;;4990219;28;20041;-74
2022/09/03 05:21:05;;;;;;;9.25;5.28;;;;;;;;;;4989658;28;20048;-73
2022/09/03 05:23:32;;;;;;;8.88;5.00;;;;;;;;;;4990086;28;20106;-76
2022/09/03 05:25:59;;;;;;;8.52;4.65;;;;;;;;;;4989714;28;20050;-76
2022/09/03 05:28:26;;;;;;;8.93;4.13;;;;;;;;;;4994107;28;20030;-74
2022/09/03 05:30:59;;;;;;;11.35;5.00;;;;;;;;;;4995928;28;20038;-71
2022/09/03 05:33:25;;;;;;;9.10;4.20;;;;;;;;;;5000181;28;20029;-74
2022/09/03 05:35:52;;;;;;;8.75;5.05;;;;;;;;;;4985502;28;20102;-75
2022/09/03 05:38:18;;;;;;;13.10;5.45;;;;;;;;;;4982365;28;20026;-74
2022/09/03 05:40:44;;;;;;;8.57;4.28;;;;;;;;;;4981014;28;21024;-72
2022/09/03 05:43:11;;;;;;;9.95;4.32;;;;;;;;;;4998643;28;20476;-84
2022/09/03 05:45:37;;;;;;;8.48;4.13;;;;;;;;;;4972891;28;20125;-73
2022/09/03 05:48:03;;;;;;;9.98;4.53;;;;;;;;;;4995785;28;20022;-72
2022/09/03 05:50:29;;;;;;;8.82;4.50;;;;;;;;;;4979632;28;20038;-83
2022/09/03 05:52:58;;;;;;;7.93;4.40;;;;;;;;;;4985068;28;20432;-73
2022/09/03 05:55:24;;;;;;;8.60;4.32;;;;;;;;;;4995637;28;20031;-75
2022/09/03 05:57:53;;;;;;;7.63;4.50;;;;;;;;;;4983315;28;20100;-84
2022/09/03 06:00:19;;;;;;;8.98;4.43;;;;;;;;;;4987210;28;20046;-78
2022/09/03 06:02:51;;;;;;;7.25;4.57;;;;;;;;;;4986572;28;20041;-72
2022/09/03 06:05:17;;;;;;;8.73;4.63;;;;;;;;;;4987463;28;20026;-71
2022/09/03 06:07:44;;;;;;;10.57;5.45;;;;;;;;;;5003714;28;20030;-75
2022/09/03 06:10:11;;;;;;;7.65;4.60;;;;;;;;;;4990651;28;20110;-74
2022/09/03 06:12:37;;;;;;;8.27;4.65;;;;;;;;;;4981589;28;20015;-80
2022/09/03 06:15:04;;;;;;;8.23;4.75;;;;;;;;;;4997976;28;20100;-72
2022/09/03 06:17:30;;;;;;;11.75;5.22;;;;;;;;;;4975621;28;20034;-77
2022/09/03 06:19:56;;;;;;;10.85;4.93;;;;;;;;;;4983745;28;20545;-73
2022/09/03 06:22:24;;;;;;;8.38;4.65;;;;;;;;;;4974844;28;20031;-80
2022/09/03 06:24:50;;;;;;;8.05;4.50;;;;;;;;;;4979869;28;20109;-71
2022/09/03 06:27:16;;;;;;;8.20;4.95;;;;;;;;;;4989983;28;20386;-80
2022/09/03 06:29:42;;;;;;;10.30;5.80;;;;;;;;;;4974814;28;20022;-80
2022/09/03 06:32:08;;;;;;;9.43;4.85;;;;;;;;;;4975680;28;20485;-80
2022/09/03 06:34:34;;;;;;;6.45;5.45;;;;;;;;;;4985570;28;20430;-79
2022/09/03 06:37:00;;;;;;;7.65;5.45;;;;;;;;;;4974839;28;20049;-81
2022/09/03 06:39:27;;;;;;;9.80;6.07;;;;;;;;;;4978779;28;20026;-76
2022/09/03 06:41:53;;;;;;;9.13;6.35;;;;;;;;;;4984363;28;20117;-78
2022/09/03 06:44:20;;;;;;;10.90;6.30;;;;;;;;;;4992249;28;20083;-80
2022/09/03 06:46:47;;;;;;;10.07;5.63;;;;;;;;;;4975573;28;20500;-80
2022/09/03 06:49:13;;;;;;;17.75;6.80;;;;;;;;;;4978500;28;20034;-70
2022/09/03 06:51:42;;;;;;;9.55;5.78;;;;;;;;;;4974861;28;20031;-73
2022/09/03 06:54:09;;;;;;;10.15;5.78;;;;;;;;;;4974256;28;20101;-69
2022/09/03 06:56:35;;;;;;;10.38;6.40;;;;;;;;;;4980017;28;20050;-74
2022/09/03 06:59:12;;;;;;;11.63;6.53;;;;;;;;;;4981490;28;20085;-70
2022/09/03 07:01:42;;;;;;;8.07;6.78;;;;;;;;;;4973815;28;20098;-73
2022/09/03 07:04:09;;;;;;;10.40;6.38;;;;;;;;;;4974420;28;20015;-73
2022/09/03 07:06:39;;;;;;;10.52;6.10;;;;;;;;;;4974988;28;20042;-70
2022/09/03 07:09:06;;;;;;;8.40;7.13;;;;;;;;;;4974233;28;20027;-73
2022/09/03 07:11:34;;;;;;;11.00;6.47;;;;;;;;;;4974828;28;20034;-73
2022/09/03 07:14:01;;;;;;;11.70;6.43;;;;;;;;;;4981850;28;20490;-71
2022/09/03 07:16:36;;;;;;;10.20;6.75;;;;;;;;;;4982575;28;20037;-72
2022/09/03 07:19:03;;;;;;;12.27;9.32;;;;;;;;;;4980914;28;20495;-73
2022/09/03 07:21:30;;;;;;;18.58;9.70;;;;;;;;;;4982363;28;20384;-73
2022/09/03 07:23:57;;;;;;;22.15;16.58;;;;;;;;;;4976344;28;20086;-75
2022/09/03 07:26:25;;;;;;;16.98;11.88;;;;;;;;;;4984478;28;20392;-73
2022/09/03 07:28:52;;;;;;;16.33;12.20;;;;;;;;;;4977567;28;20050;-76
2022/09/03 07:31:26;;;;;;;18.20;12.00;;;;;;;;;;4978021;28;20058;-73
2022/09/03 07:33:55;;;;;;;16.27;12.55;;;;;;;;;;4974109;28;20480;-72
2022/09/03 07:36:22;;;;;;;16.92;13.10;;;;;;;;;;4979984;28;20070;-74
2022/09/03 07:38:48;;;;;;;18.88;13.50;;;;;;;;;;4976871;28;20035;-73
2022/09/03 07:41:15;;;;;;;16.38;13.13;;;;;;;;;;4978864;28;20034;-78
2022/09/03 07:43:48;;;;;;;16.05;12.73;;;;;;;;;;4978881;28;20054;-75
2022/09/03 07:46:17;;;;;;;19.40;14.75;;;;;;;;;;4977916;28;20500;-75
2022/09/03 07:48:46;;;;;;;17.10;13.38;;;;;;;;;;4980432;28;20101;-76
2022/09/03 07:51:12;;;;;;;14.70;11.82;;;;;;;;;;4992224;28;20038;-76
2022/09/03 07:53:38;;;;;;;16.25;12.30;;;;;;;;;;4977803;28;20073;-76
2022/09/03 07:56:05;;;;;;;14.05;10.95;;;;;;;;;;4989389;28;20038;-75
2022/09/03 07:58:32;;;;;;;11.95;9.30;;;;;;;;;;4980065;28;20015;-74
2022/09/03 08:00:58;;;;;;;12.07;10.02;;;;;;;;;;4983505;28;20058;-73
2022/09/03 08:03:25;;;;;;;13.15;9.93;;;;;;;;;;4977512;28;20027;-76
2022/09/03 08:05:51;;;;;;;10.90;9.60;;;;;;;;;;4977527;28;20114;-72
2022/09/03 08:08:17;;;;;;;31.67;23.40;;;;;;;;;;4986978;28;20050;-76
2022/09/03 08:10:43;;;;;;;11.07;8.32;;;;;;;;;;4980639;28;20039;-77
2022/09/03 08:13:10;;;;;;;11.65;8.90;;;;;;;;;;4994517;28;20037;-76
2022/09/03 08:15:39;;;;;;;8.68;7.57;;;;;;;;;;4984432;28;20033;-73
2022/09/03 08:18:05;;;;;;;12.20;8.00;;;;;;;;;;4982094;28;20074;-74
2022/09/03 08:20:31;;;;;;;10.13;7.75;;;;;;;;;;4981616;28;20022;-71
2022/09/03 08:23:01;;;;;;;13.60;8.45;;;;;;;;;;4967571;28;20133;-79
2022/09/03 08:25:28;;;;;;;12.88;7.60;;;;;;;;;;4995747;28;20038;-78
2022/09/03 08:27:54;;;;;;;13.20;7.90;;;;;;;;;;4986668;28;20439;-72
2022/09/03 08:30:20;;;;;;;12.65;7.78;;;;;;;;;;4992955;28;20073;-76
2022/09/03 08:32:46;;;;;;;13.50;7.82;;;;;;;;;;4977954;28;20063;-74
2022/09/03 08:35:13;;;;;;;9.32;7.60;;;;;;;;;;4976907;28;20601;-76
2022/09/03 08:37:39;;;;;;;12.55;8.30;;;;;;;;;;4976985;28;20035;-75
2022/09/03 08:40:06;;;;;;;10.15;7.72;;;;;;;;;;4983521;28;20121;-72
2022/09/03 08:42:45;;;;;;;12.60;7.95;;;;;;;;;;4984209;28;20409;-71
2022/09/03 08:45:15;;;;;;;14.38;9.10;;;;;;;;;;4984999;28;20031;-80
2022/09/03 08:47:44;;;;;;;13.75;8.30;;;;;;;;;;4981864;28;20030;-75
2022/09/03 08:50:18;;;;;;;10.13;8.50;;;;;;;;;;4999875;28;20084;-75
2022/09/03 08:52:51;;;;;;;10.90;8.48;;;;;;;;;;4990303;28;20027;-78
2022/09/03 08:55:41;;;;;;;9.95;8.52;;;;;;;;;;4987211;28;20098;-89
2022/09/03 08:58:13;;;;;;;12.48;9.40;;;;;;;;;;4979453;28;20058;-79
2022/09/03 09:00:52;;;;;;;12.07;10.18;;;;;;;;;;4985868;28;20503;-79
2022/09/03 09:03:31;;;;;;;11.25;9.55;;;;;;;;;;4968464;28;20038;-78
2022/09/03 09:06:04;;;;;;;10.75;8.93;;;;;;;;;;4981306;28;20038;-77
2022/09/03 09:08:37;;;;;;;12.75;8.77;;;;;;;;;;4985760;28;20049;-76
2022/09/03 09:11:21;;;;;;;11.20;8.60;;;;;;;;;;4983741;28;20110;-78
2022/09/03 09:13:55;;;;;;;11.98;9.48;;;;;;;;;;4970018;28;20026;-80
2022/09/03 09:16:26;;;;;;;13.10;9.48;;;;;;;;;;4996837;28;20027;-72
2022/09/03 09:19:10;;;;;;;14.02;9.98;;;;;;;;;;4981443;28;20557;-74
2022/09/03 09:21:45;;;;;;;12.60;9.68;;;;;;;;;;4980934;28;20081;-74
2022/09/03 09:24:33;;;;;;;13.70;9.25;;;;;;;;;;4978695;28;20117;-75
2022/09/03 09:27:00;;;;;;;12.52;9.63;;;;;;;;;;4978026;28;20045;-76
2022/09/03 09:29:32;;;;;;;13.30;9.50;;;;;;;;;;4976019;28;20031;-75
2022/09/03 09:31:58;;;;;;;12.40;8.40;;;;;;;;;;4975724;28;20561;-75
2022/09/03 09:34:24;;;;;;;14.45;9.77;;;;;;;;;;4990256;28;20022;-73
2022/09/03 09:36:51;;;;;;;12.25;9.15;;;;;;;;;;4991062;28;20388;-71
2022/09/03 09:39:18;;;;;;;12.68;9.55;;;;;;;;;;4980605;28;20031;-71
2022/09/03 09:41:56;;;;;;;12.07;9.07;;;;;;;;;;4980086;28;20027;-72
2022/09/03 09:44:22;;;;;;;12.13;10.00;;;;;;;;;;4975702;28;20086;-73
2022/09/03 09:46:48;;;;;;;12.48;10.25;;;;;;;;;;4977716;28;20069;-71
2022/09/03 09:49:24;;;;;;;11.77;9.13;;;;;;;;;;4983984;28;20015;-75
2022/09/03 09:52:00;;;;;;;13.88;9.25;;;;;;;;;;4975158;28;20038;-74
2022/09/03 09:54:26;;;;;;;14.65;9.45;;;;;;;;;;4977958;28;20023;-75
2022/09/03 09:57:00;;;;;;;10.73;9.43;;;;;;;;;;4976474;28;20053;-75
2022/09/03 09:59:26;;;;;;;14.75;9.43;;;;;;;;;;4977076;28;20393;-77
2022/09/03 10:02:03;;;;;;;15.40;9.80;;;;;;;;;;4983272;28;20518;-74
2022/09/03 10:04:31;;;;;;;12.48;9.38;;;;;;;;;;4983338;28;20062;-73
2022/09/03 10:07:04;;;;;;;12.63;9.75;;;;;;;;;;4981835;28;20030;-86
2022/09/03 10:09:31;;;;;;;13.40;9.80;;;;;;;;;;4981126;28;20041;-82
2022/09/03 10:12:18;;;;;;;13.18;9.60;;;;;;;;;;4964745;28;20090;-81
2022/09/03 10:14:52;;;;;;;16.58;9.32;;;;;;;;;;4995870;28;20148;-82
2022/09/03 10:17:23;;;;;;;16.73;13.88;;;;;;;;;;4986547;28;20108;-86
2022/09/03 10:20:26;;;;;;;16.10;10.15;;;;;;;;;;4972929;28;20074;-81
2022/09/03 10:22:45;;;;;;;13.82;9.70;;;;;;;;;;4979592;28;20031;-86
2022/09/03 10:25:13;;;;;;;12.45;9.02;;;;;;;;;;4973428;28;20485;-82
2022/09/03 10:27:39;;;;;;;11.55;9.38;;;;;;;;;;4981691;28;20030;-83
2022/09/03 10:30:07;;;;;;;11.25;8.93;;;;;;;;;;4978792;28;20062;-82
2022/09/03 10:32:52;;;;;;;11.45;8.95;;;;;;;;;;4967513;28;20058;-85
2022/09/03 10:35:23;;;;;;;13.50;8.73;;;;;;;;;;4976768;28;20034;-78
2022/09/03 10:37:54;;;;;;;12.60;8.98;;;;;;;;;;4976798;28;20484;-85
2022/09/03 10:40:39;;;;;;;13.48;9.38;;;;;;;;;;4967953;28;20060;-79
2022/09/03 10:43:28;;;;;;;13.75;10.75;;;;;;;;;;4984559;28;20027;-79
2022/09/03 10:45:58;;;;;;;12.10;9.70;;;;;;;;;;4986496;28;20038;-76
2022/09/03 10:48:37;;;;;;;20.77;10.07;;;;;;;;;;4985450;28;20022;-85
2022/09/03 10:51:15;;;;;;;12.35;9.70;;;;;;;;;;4999854;28;20487;-73
2022/09/03 10:54:17;;;;;;;12.57;9.52;;;;;;;;;;4987593;28;20481;-81
2022/09/03 10:56:49;;;;;;;12.85;9.13;;;;;;;;;;4899156;29;20108;-78
2022/09/03 10:59:34;;;;;;;10.77;8.57;;;;;;;;;;4898368;29;20040;-86
2022/09/03 11:02:19;;;;;;;12.68;9.05;;;;;;;;;;4881024;29;20059;-81
2022/09/03 11:04:55;;;;;;;12.23;9.38;;;;;;;;;;4886611;29;20037;-82
2022/09/03 11:07:24;;;;;;;11.93;9.43;;;;;;;;;;4900654;29;20043;-85
2022/09/03 11:09:55;;;;;;;13.02;9.70;;;;;;;;;;4895973;29;20471;-87
2022/09/03 11:12:26;;;;;;;13.43;10.07;;;;;;;;;;4880005;29;20051;-78
2022/09/03 11:14:56;;;;;;;11.27;9.45;;;;;;;;;;4901507;29;20039;-81
2022/09/03 11:17:28;;;;;;;10.15;8.52;;;;;;;;;;4905763;29;20048;-80
2022/09/03 11:20:09;;;;;;;12.55;9.57;;;;;;;;;;4897846;29;20626;-77
2022/09/03 11:22:37;;;;;;;11.25;9.23;;;;;;;;;;4885755;29;20054;-78
2022/09/03 11:25:06;;;;;;;13.48;9.18;;;;;;;;;;4894928;29;20041;-80
2022/09/03 11:27:32;;;;;;;11.07;9.15;;;;;;;;;;4892976;29;20029;-79
2022/09/03 11:30:07;;;;;;;11.30;8.73;;;;;;;;;;4915940;28;20180;-78
2022/09/03 11:32:45;;;;;;;11.25;9.23;;;;;;;;;;4977010;28;20035;-78
2022/09/03 11:35:15;;;;;;;10.57;8.98;;;;;;;;;;4976153;28;20031;-80
2022/09/03 11:38:01;;;;;;;13.23;8.90;;;;;;;;;;4976652;28;20026;-79
2022/09/03 11:40:37;;;;;;;11.77;8.93;;;;;;;;;;4980810;28;20157;-78
2022/09/03 11:43:07;;;;;;;17.80;9.15;;;;;;;;;;4977970;28;20030;-78
2022/09/03 11:45:36;;;;;;;9.98;7.50;;;;;;;;;;4974907;28;20027;-86
2022/09/03 11:48:16;;;;;;;11.25;9.10;;;;;;;;;;4982988;28;20033;-83
2022/09/03 11:50:51;;;;;;;12.43;8.85;;;;;;;;;;4998206;28;20211;-83
2022/09/03 11:53:20;;;;;;;12.95;8.20;;;;;;;;;;4990733;28;20035;-85
2022/09/03 11:55:54;;;;;;;13.38;9.10;;;;;;;;;;4983822;28;20106;-86
2022/09/03 11:58:26;;;;;;;10.07;8.07;;;;;;;;;;4992008;28;20274;-74
2022/09/03 12:00:53;;;;;;;9.73;7.97;;;;;;;;;;4978769;28;20177;-86
2022/09/03 12:03:26;;;;;;;11.95;8.23;;;;;;;;;;4986984;28;20037;-85
2022/09/03 12:06:01;;;;;;;14.40;7.53;;;;;;;;;;4978208;28;20365;-82
2022/09/03 12:08:37;;;;;;;12.50;7.90;;;;;;;;;;4985539;28;20073;-81
2022/09/03 12:11:15;;;;;;;12.05;9.05;;;;;;;;;;4992194;28;20037;-82
2022/09/03 12:13:59;;;;;;;12.05;7.88;;;;;;;;;;4990977;28;20014;-85
2022/09/03 12:16:48;;;;;;;18.33;7.60;;;;;;;;;;4976745;28;20496;-83
2022/09/03 12:19:27;;;;;;;8.50;6.65;;;;;;;;;;4861005;29;20037;-82
2022/09/03 12:21:54;;;;;;;9.90;7.40;;;;;;;;;;4873675;29;20498;-86
2022/09/03 12:24:22;;;;;;;8.77;5.97;;;;;;;;;;4895783;29;20040;-85
2022/09/03 12:26:48;;;;;;;8.18;6.47;;;;;;;;;;4898690;29;20041;-82
2022/09/03 12:29:28;;;;;;;9.05;7.13;;;;;;;;;;4898523;29;20032;-78
2022/09/03 12:31:57;;;;;;;10.18;6.80;;;;;;;;;;4897523;29;20048;-81
2022/09/03 12:34:24;;;;;;;10.25;7.05;;;;;;;;;;4898622;29;20062;-76
2022/09/03 12:36:51;;;;;;;10.23;6.97;;;;;;;;;;4898720;29;20045;-85
2022/09/03 12:39:17;;;;;;;15.10;7.43;;;;;;;;;;4898309;29;20036;-85
2022/09/03 12:42:07;;;;;;;8.88;6.57;;;;;;;;;;4897941;29;20036;-75
2022/09/03 12:44:36;;;;;;;8.35;5.95;;;;;;;;;;4853636;29;20451;-80
2022/09/03 12:47:11;;;;;;;9.38;6.63;;;;;;;;;;4856095;29;20054;-85
2022/09/03 12:49:38;;;;;;;19.10;7.32;;;;;;;;;;4848498;29;20036;-85
2022/09/03 12:52:08;;;;;;;15.52;7.60;;;;;;;;;;4861280;29;20120;-75
2022/09/03 12:54:37;;;;;;;9.23;6.97;;;;;;;;;;4861000;29;20123;-85
2022/09/03 12:57:03;;;;;;;9.63;7.10;;;;;;;;;;4906478;29;20123;-83
2022/09/03 12:59:32;;;;;;;9.27;7.10;;;;;;;;;;4917427;29;20107;-85
2022/09/03 13:02:03;;;;;;;8.57;6.85;;;;;;;;;;4925388;29;20052;-84
2022/09/03 13:04:32;;;;;;;9.68;7.05;;;;;;;;;;4918783;29;20032;-75
2022/09/03 13:07:21;;;;;;;9.98;6.80;;;;;;;;;;4916663;29;20131;-85
2022/09/03 13:09:47;;;;;;;18.30;8.70;;;;;;;;;;4905989;29;20395;-82
2022/09/03 13:12:21;;;;;;;8.48;6.15;;;;;;;;;;4916772;29;20115;-75
2022/09/03 13:14:47;;;;;;;7.75;5.82;;;;;;;;;;4916911;29;20051;-75
2022/09/03 13:17:22;;;;;;;8.30;6.53;;;;;;;;;;4916428;29;20079;-78
2022/09/03 13:19:51;;;;;;;10.02;6.53;;;;;;;;;;4913714;29;20033;-86
2022/09/03 13:22:41;;;;;;;6.63;5.95;;;;;;;;;;4978512;28;20392;-79
2022/09/03 13:25:13;;;;;;;8.60;5.82;;;;;;;;;;4976144;28;20027;-82
2022/09/03 13:28:01;;;;;;;9.23;5.20;;;;;;;;;;4976934;28;20050;-84
2022/09/03 13:30:46;;;;;;;11.65;6.47;;;;;;;;;;4975909;28;20023;-75
2022/09/03 13:33:20;;;;;;;8.35;6.18;;;;;;;;;;4982860;28;20066;-78
2022/09/03 13:35:49;;;;;;;9.50;6.80;;;;;;;;;;4986225;28;20027;-83
2022/09/03 13:38:27;;;;;;;12.70;9.15;;;;;;;;;;4976730;28;20039;-75
2022/09/03 13:41:18;;;;;;;8.90;6.68;;;;;;;;;;4976671;28;20082;-83
2022/09/03 13:43:44;;;;;;;8.25;6.65;;;;;;;;;;4975853;28;20050;-80
2022/09/03 13:46:12;;;;;;;7.90;5.95;;;;;;;;;;4981173;28;20042;-85
2022/09/03 13:51:31;;;;;;;8.95;6.28;;;;;;;;;;4975650;28;20491;-81
2022/09/03 13:53:57;;;;;;;8.63;6.50;;;;;;;;;;4981721;28;20030;-80
2022/09/03 13:56:26;;;;;;;7.50;5.75;;;;;;;;;;4991914;28;20030;-82
2022/09/03 13:59:07;;;;;;;8.95;5.90;;;;;;;;;;4981259;28;20027;-75
2022/09/03 14:01:56;;;;;;;8.38;6.28;;;;;;;;;;4975102;28;20162;-82
2022/09/03 14:04:27;;;;;;;6.97;5.80;;;;;;;;;;4965355;28;20039;-83
2022/09/03 14:07:08;;;;;;;8.65;6.00;;;;;;;;;;4975469;28;20042;-83
2022/09/03 14:10:12;;;;;;;6.60;5.55;;;;;;;;;;4983812;28;20065;-85
2022/09/03 14:12:46;;;;;;;7.63;5.72;;;;;;;;;;4896769;29;20108;-83
2022/09/03 14:15:30;;;;;;;7.32;5.90;;;;;;;;;;4894224;29;20036;-82
2022/09/03 14:18:13;;;;;;;5.88;4.57;;;;;;;;;;4875054;29;20028;-83
2022/09/03 14:20:39;;;;;;;;;;;;;;;;;;4895479;29;20032;-83
2022/09/03 14:23:09;;;;;;;6.82;4.22;;;;;;;;;;4894403;29;20430;-83
2022/09/03 14:25:35;;;;;;;5.18;4.40;;;;;;;;;;4895951;29;20029;-76
2022/09/03 14:28:15;;;;;;;6.57;4.55;;;;;;;;;;4896272;29;20036;-82
2022/09/03 14:30:49;;;;;;;5.50;4.80;;;;;;;;;;4896004;29;20123;-84
2022/09/03 14:33:30;;;;;;;6.82;4.22;;;;;;;;;;4896652;29;20037;-84
2022/09/03 14:35:56;;;;;;;6.63;3.90;;;;;;;;;;4896632;29;20033;-84
2022/09/03 14:38:28;;;;;;;7.00;4.30;;;;;;;;;;4896811;29;20052;-76
2022/09/03 14:41:01;;;;;;;5.10;4.30;;;;;;;;;;4894880;29;20108;-84
2022/09/03 14:43:27;;;;;;;7.18;4.95;;;;;;;;;;4938261;28;20046;-83
2022/09/03 14:46:11;;;;;;;8.15;4.60;;;;;;;;;;4974637;28;20110;-82
2022/09/03 14:48:46;;;;;;;5.63;4.60;;;;;;;;;;4982443;28;20440;-82
2022/09/03 14:51:23;;;;;;;5.28;4.13;;;;;;;;;;4974973;28;20051;-83
2022/09/03 14:54:07;;;;;;;5.10;4.03;;;;;;;;;;4974611;28;20029;-77
2022/09/03 14:56:49;;;;;;;5.88;4.30;;;;;;;;;;4974355;28;20018;-83